createdAt,value
2023-01-03T00:00:02.810Z,930.56
2023-01-03T00:01:02.825Z,930.59
2023-01-03T00:02:02.889Z,930.54
2023-01-03T00:03:02.858Z,930.52
2023-01-03T00:04:02.957Z,930.52
2023-01-03T00:05:02.957Z,930.53
2023-01-03T00:06:02.899Z,930.50
2023-01-03T00:07:02.927Z,930.49
2023-01-03T00:08:02.969Z,930.58
2023-01-03T00:09:02.957Z,930.59
2023-01-03T00:10:02.979Z,930.62
2023-01-03T00:11:02.994Z,930.66
2023-01-03T00:12:03.007Z,930.71
2023-01-03T00:13:03.038Z,930.71
2023-01-03T00:14:03.036Z,930.75
2023-01-03T00:15:03.062Z,930.76
2023-01-03T00:16:03.073Z,930.80
2023-01-03T00:17:03.133Z,930.77
2023-01-03T00:18:03.106Z,930.80
2023-01-03T00:19:03.121Z,930.80
2023-01-03T00:20:03.130Z,930.79
2023-01-03T00:21:03.149Z,930.81
2023-01-03T00:22:03.165Z,930.81
2023-01-03T00:23:03.180Z,930.82
2023-01-03T00:24:03.223Z,930.81
2023-01-03T00:25:03.214Z,930.85
2023-01-03T00:26:03.278Z,930.82
2023-01-03T00:27:03.262Z,930.83
2023-01-03T00:28:03.262Z,930.85
2023-01-03T00:29:03.296Z,930.85
2023-01-03T00:30:03.296Z,930.84
2023-01-03T00:31:03.400Z,930.87
2023-01-03T00:32:03.326Z,930.79
2023-01-03T00:33:03.360Z,930.75
2023-01-03T00:34:03.371Z,930.74
2023-01-03T00:35:05.522Z,930.76
2023-01-03T00:36:03.395Z,930.76
2023-01-03T00:37:03.408Z,930.77
2023-01-03T00:38:03.431Z,930.78
2023-01-03T00:39:03.442Z,930.76
2023-01-03T00:40:03.486Z,930.73
2023-01-03T00:41:03.477Z,930.74
2023-01-03T00:42:03.493Z,930.73
2023-01-03T00:43:03.516Z,930.72
2023-01-03T00:44:03.527Z,930.65
2023-01-03T00:45:03.542Z,930.66
2023-01-03T00:46:03.584Z,930.67
2023-01-03T00:47:03.598Z,930.67
2023-01-03T00:48:03.600Z,930.66
2023-01-03T00:49:03.619Z,930.63
2023-01-03T00:50:03.631Z,930.65
2023-01-03T00:51:03.640Z,930.68
2023-01-03T00:52:03.665Z,930.67
2023-01-03T00:53:03.680Z,930.73
2023-01-03T00:54:03.692Z,930.76
2023-01-03T00:55:03.711Z,930.78
2023-01-03T00:56:03.744Z,930.75
2023-01-03T00:57:03.741Z,930.75
2023-01-03T00:58:03.768Z,930.73
2023-01-03T00:59:03.790Z,930.73
2023-01-03T01:00:03.792Z,930.73
2023-01-03T01:01:03.846Z,930.74
2023-01-03T01:02:04.031Z,930.76
2023-01-03T01:03:03.980Z,930.76
2023-01-03T01:04:03.896Z,930.78
2023-01-03T01:05:03.875Z,930.81
2023-01-03T01:06:03.886Z,930.79
2023-01-03T01:07:03.912Z,930.82
2023-01-03T01:08:03.925Z,930.81
2023-01-03T01:09:03.943Z,930.80
2023-01-03T01:10:03.966Z,930.80
2023-01-03T01:11:04.013Z,930.83
2023-01-03T01:12:04.008Z,930.81
2023-01-03T01:13:04.030Z,930.84
2023-01-03T01:14:04.014Z,930.81
2023-01-03T01:15:04.030Z,930.86
2023-01-03T01:16:04.098Z,930.81
2023-01-03T01:17:04.062Z,930.81
2023-01-03T01:18:04.087Z,930.83
2023-01-03T01:19:04.097Z,930.82
2023-01-03T01:20:04.119Z,930.82
2023-01-03T01:21:04.130Z,930.80
2023-01-03T01:22:04.155Z,930.81
2023-01-03T01:23:04.164Z,930.79
2023-01-03T01:24:04.190Z,930.79
2023-01-03T01:25:04.206Z,930.79
2023-01-03T01:26:04.235Z,930.85
2023-01-03T01:27:04.640Z,930.85
2023-01-03T01:28:04.277Z,930.87
2023-01-03T01:29:04.263Z,930.88
2023-01-03T01:30:04.290Z,930.93
2023-01-03T01:31:04.373Z,930.90
2023-01-03T01:32:04.308Z,930.93
2023-01-03T01:33:04.342Z,930.93
2023-01-03T01:34:04.353Z,930.95
2023-01-03T01:35:04.367Z,930.93
2023-01-03T01:36:04.374Z,930.91
2023-01-03T01:37:04.399Z,930.90
2023-01-03T01:38:04.407Z,930.87
2023-01-03T01:39:04.422Z,930.86
2023-01-03T01:40:04.440Z,930.89
2023-01-03T01:41:04.463Z,930.90
2023-01-03T01:42:04.499Z,930.93
2023-01-03T01:43:04.496Z,930.94
2023-01-03T01:44:04.637Z,930.94
2023-01-03T01:45:04.553Z,930.95
2023-01-03T01:46:04.594Z,930.95
2023-01-03T01:47:04.552Z,930.93
2023-01-03T01:48:04.575Z,930.95
2023-01-03T01:49:04.593Z,930.93
2023-01-03T01:50:04.611Z,930.96
2023-01-03T01:51:04.625Z,930.93
2023-01-03T01:52:04.638Z,930.92
2023-01-03T01:53:04.649Z,930.93
2023-01-03T01:54:04.666Z,930.91
2023-01-03T01:55:04.694Z,930.91
2023-01-03T01:56:04.702Z,930.89
2023-01-03T01:57:04.723Z,930.91
2023-01-03T01:58:04.738Z,930.90
2023-01-03T01:59:04.751Z,930.91
2023-01-03T02:00:04.791Z,930.87
2023-01-03T02:01:04.852Z,930.86
2023-01-03T02:02:04.971Z,930.86
2023-01-03T02:03:05.056Z,930.82
2023-01-03T02:04:04.835Z,930.82
2023-01-03T02:05:04.845Z,930.81
2023-01-03T02:06:04.868Z,930.83
2023-01-03T02:07:04.878Z,930.82
2023-01-03T02:08:04.901Z,930.82
2023-01-03T02:09:04.917Z,930.85
2023-01-03T02:10:04.933Z,930.81
2023-01-03T02:11:04.953Z,930.82
2023-01-03T02:12:04.962Z,930.84
2023-01-03T02:13:04.987Z,930.81
2023-01-03T02:14:04.992Z,930.76
2023-01-03T02:15:05.009Z,930.78
2023-01-03T02:16:05.101Z,930.71
2023-01-03T02:17:05.240Z,930.71
2023-01-03T02:18:05.057Z,930.68
2023-01-03T02:19:05.082Z,930.69
2023-01-03T02:20:05.103Z,930.63
2023-01-03T02:21:05.112Z,930.59
2023-01-03T02:22:05.132Z,930.60
2023-01-03T02:23:05.142Z,930.53
2023-01-03T02:24:05.153Z,930.56
2023-01-03T02:25:05.182Z,930.56
2023-01-03T02:26:05.195Z,930.63
2023-01-03T02:27:05.203Z,930.58
2023-01-03T02:28:05.226Z,930.56
2023-01-03T02:29:05.242Z,930.58
2023-01-03T02:30:05.256Z,930.52
2023-01-03T02:31:05.314Z,930.46
2023-01-03T02:32:05.309Z,930.48
2023-01-03T02:33:05.297Z,930.49
2023-01-03T02:34:05.317Z,930.43
2023-01-03T02:35:05.332Z,930.45
2023-01-03T02:36:05.354Z,930.42
2023-01-03T02:37:05.370Z,930.41
2023-01-03T02:38:05.379Z,930.43
2023-01-03T02:39:05.415Z,930.38
2023-01-03T02:40:05.433Z,930.37
2023-01-03T02:41:05.430Z,930.33
2023-01-03T02:42:05.451Z,930.31
2023-01-03T02:43:05.460Z,930.25
2023-01-03T02:44:05.487Z,930.21
2023-01-03T02:45:05.505Z,930.20
2023-01-03T02:46:05.560Z,930.13
2023-01-03T02:47:05.590Z,930.08
2023-01-03T02:48:05.591Z,930.10
2023-01-03T02:49:05.559Z,930.09
2023-01-03T02:50:05.585Z,930.07
2023-01-03T02:51:05.591Z,930.07
2023-01-03T02:52:05.610Z,930.07
2023-01-03T02:53:05.627Z,930.07
2023-01-03T02:54:05.640Z,930.07
2023-01-03T02:55:05.654Z,930.05
2023-01-03T02:56:05.672Z,930.00
2023-01-03T02:57:05.696Z,929.99
2023-01-03T02:58:05.704Z,929.95
2023-01-03T02:59:05.721Z,929.95
2023-01-03T03:00:05.735Z,929.93
2023-01-03T03:01:05.844Z,929.91
2023-01-03T03:02:05.988Z,929.86
2023-01-03T03:03:05.892Z,929.84
2023-01-03T03:04:05.818Z,929.84
2023-01-03T03:05:05.813Z,929.81
2023-01-03T03:06:05.840Z,929.77
2023-01-03T03:07:05.864Z,929.75
2023-01-03T03:08:05.881Z,929.77
2023-01-03T03:09:05.908Z,929.77
2023-01-03T03:10:05.904Z,929.75
2023-01-03T03:11:05.917Z,929.74
2023-01-03T03:12:05.933Z,929.72
2023-01-03T03:13:05.945Z,929.71
2023-01-03T03:14:05.970Z,929.73
2023-01-03T03:15:05.977Z,929.71
2023-01-03T03:16:06.036Z,929.75
2023-01-03T03:17:06.016Z,929.72
2023-01-03T03:18:06.034Z,929.71
2023-01-03T03:19:06.042Z,929.70
2023-01-03T03:20:07.012Z,929.71
2023-01-03T03:21:06.072Z,929.67
2023-01-03T03:22:06.091Z,929.67
2023-01-03T03:23:06.109Z,929.63
2023-01-03T03:24:06.128Z,929.68
2023-01-03T03:25:06.138Z,929.64
2023-01-03T03:26:06.162Z,929.69
2023-01-03T03:27:06.179Z,929.62
2023-01-03T03:28:06.185Z,929.61
2023-01-03T03:29:06.209Z,929.56
2023-01-03T03:30:06.240Z,929.58
2023-01-03T03:31:06.335Z,929.60
2023-01-03T03:32:06.261Z,929.61
2023-01-03T03:33:06.282Z,929.61
2023-01-03T03:34:06.299Z,929.60
2023-01-03T03:35:06.298Z,929.57
2023-01-03T03:36:06.344Z,929.61
2023-01-03T03:37:06.340Z,929.63
2023-01-03T03:38:06.349Z,929.64
2023-01-03T03:39:06.375Z,929.61
2023-01-03T03:40:06.408Z,929.57
2023-01-03T03:41:06.408Z,929.57
2023-01-03T03:42:06.421Z,929.60
2023-01-03T03:43:06.431Z,929.56
2023-01-03T03:44:06.446Z,929.56
2023-01-03T03:45:06.469Z,929.54
2023-01-03T03:46:06.475Z,929.59
2023-01-03T03:47:06.569Z,929.61
2023-01-03T03:48:06.523Z,929.63
2023-01-03T03:49:06.534Z,929.63
2023-01-03T03:50:06.548Z,929.64
2023-01-03T03:51:06.563Z,929.61
2023-01-03T03:52:06.595Z,929.59
2023-01-03T03:53:06.596Z,929.60
2023-01-03T03:54:06.606Z,929.63
2023-01-03T03:55:06.632Z,929.62
2023-01-03T03:56:06.646Z,929.59
2023-01-03T03:57:06.653Z,929.55
2023-01-03T03:58:06.685Z,929.54
2023-01-03T03:59:06.707Z,929.51
2023-01-03T04:00:06.703Z,929.47
2023-01-03T04:01:06.760Z,929.48
2023-01-03T04:02:06.889Z,929.46
2023-01-03T04:03:06.914Z,929.41
2023-01-03T04:04:06.822Z,929.38
2023-01-03T04:05:06.787Z,929.36
2023-01-03T04:06:06.810Z,929.32
2023-01-03T04:07:06.829Z,929.31
2023-01-03T04:08:06.851Z,929.25
2023-01-03T04:09:06.854Z,929.26
2023-01-03T04:10:06.873Z,929.27
2023-01-03T04:11:06.895Z,929.23
2023-01-03T04:12:06.894Z,929.18
2023-01-03T04:13:06.972Z,929.21
2023-01-03T04:14:06.935Z,929.15
2023-01-03T04:15:06.997Z,929.08
2023-01-03T04:16:07.099Z,929.06
2023-01-03T04:17:06.975Z,929.04
2023-01-03T04:18:06.993Z,929.03
2023-01-03T04:19:07.010Z,928.99
2023-01-03T04:20:07.033Z,928.97
2023-01-03T04:21:07.046Z,928.95
2023-01-03T04:22:07.063Z,929.02
2023-01-03T04:23:07.080Z,928.94
2023-01-03T04:24:07.117Z,928.90
2023-01-03T04:25:07.125Z,928.91
2023-01-03T04:26:07.126Z,928.88
2023-01-03T04:27:07.151Z,928.90
2023-01-03T04:28:07.166Z,928.87
2023-01-03T04:29:07.175Z,928.85
2023-01-03T04:30:07.212Z,928.86
2023-01-03T04:31:07.199Z,928.88
2023-01-03T04:32:07.312Z,928.86
2023-01-03T04:33:07.239Z,928.81
2023-01-03T04:34:07.248Z,928.81
2023-01-03T04:35:07.271Z,928.77
2023-01-03T04:36:07.288Z,928.81
2023-01-03T04:37:07.309Z,928.81
2023-01-03T04:38:07.321Z,928.80
2023-01-03T04:39:07.341Z,928.83
2023-01-03T04:40:07.380Z,928.82
2023-01-03T04:41:07.370Z,928.78
2023-01-03T04:42:07.381Z,928.78
2023-01-03T04:43:07.401Z,928.76
2023-01-03T04:44:07.412Z,928.76
2023-01-03T04:45:07.453Z,928.79
2023-01-03T04:46:07.528Z,928.79
2023-01-03T04:47:07.457Z,928.78
2023-01-03T04:48:07.480Z,928.77
2023-01-03T04:49:07.503Z,928.84
2023-01-03T04:50:07.513Z,928.82
2023-01-03T04:51:07.527Z,928.77
2023-01-03T04:52:07.542Z,928.76
2023-01-03T04:53:07.554Z,928.73
2023-01-03T04:54:07.582Z,928.71
2023-01-03T04:55:07.593Z,928.65
2023-01-03T04:56:07.730Z,928.66
2023-01-03T04:57:07.639Z,928.66
2023-01-03T04:58:07.639Z,928.68
2023-01-03T04:59:07.647Z,928.68
2023-01-03T05:00:07.679Z,928.69
2023-01-03T05:01:07.810Z,928.66
2023-01-03T05:02:07.913Z,928.66
2023-01-03T05:03:07.718Z,928.64
2023-01-03T05:04:07.768Z,928.60
2023-01-03T05:05:07.744Z,928.55
2023-01-03T05:06:07.766Z,928.55
2023-01-03T05:07:07.782Z,928.56
2023-01-03T05:08:07.792Z,928.62
2023-01-03T05:09:07.816Z,928.63
2023-01-03T05:10:07.841Z,928.65
2023-01-03T05:11:07.850Z,928.61
2023-01-03T05:12:07.897Z,928.61
2023-01-03T05:13:07.886Z,928.61
2023-01-03T05:14:12.563Z,928.57
2023-01-03T05:15:07.908Z,928.56
2023-01-03T05:16:08.045Z,928.58
2023-01-03T05:17:07.947Z,928.58
2023-01-03T05:18:07.949Z,928.52
2023-01-03T05:19:07.981Z,928.49
2023-01-03T05:20:07.985Z,928.47
2023-01-03T05:21:08.031Z,928.48
2023-01-03T05:22:08.014Z,928.47
2023-01-03T05:23:08.039Z,928.50
2023-01-03T05:24:08.053Z,928.51
2023-01-03T05:25:08.069Z,928.51
2023-01-03T05:26:08.092Z,928.46
2023-01-03T05:27:08.101Z,928.47
2023-01-03T05:28:12.335Z,928.43
2023-01-03T05:29:08.134Z,928.45
2023-01-03T05:30:08.146Z,928.46
2023-01-03T05:31:08.165Z,928.50
2023-01-03T05:32:08.238Z,928.46
2023-01-03T05:33:08.208Z,928.46
2023-01-03T05:34:08.225Z,928.45
2023-01-03T05:35:08.222Z,928.45
2023-01-03T05:36:08.258Z,928.43
2023-01-03T05:37:08.261Z,928.41
2023-01-03T05:38:08.279Z,928.40
2023-01-03T05:39:08.298Z,928.38
2023-01-03T05:40:08.308Z,928.40
2023-01-03T05:41:08.318Z,928.39
2023-01-03T05:42:08.344Z,928.40
2023-01-03T05:43:08.359Z,928.43
2023-01-03T05:44:08.399Z,928.39
2023-01-03T05:45:08.413Z,928.36
2023-01-03T05:46:08.455Z,928.37
2023-01-03T05:47:08.419Z,928.34
2023-01-03T05:48:08.435Z,928.31
2023-01-03T05:49:08.452Z,928.29
2023-01-03T05:50:08.480Z,928.29
2023-01-03T05:51:08.477Z,928.24
2023-01-03T05:52:08.494Z,928.25
2023-01-03T05:53:08.517Z,928.25
2023-01-03T05:54:08.533Z,928.23
2023-01-03T05:55:08.549Z,928.22
2023-01-03T05:56:08.571Z,928.25
2023-01-03T05:57:08.573Z,928.29
2023-01-03T05:58:08.597Z,928.23
2023-01-03T05:59:08.624Z,928.29
2023-01-03T06:00:08.747Z,928.27
2023-01-03T06:01:08.693Z,928.26
2023-01-03T06:02:08.868Z,928.26
2023-01-03T06:03:08.796Z,928.25
2023-01-03T06:04:08.773Z,928.19
2023-01-03T06:05:08.708Z,928.22
2023-01-03T06:06:08.733Z,928.22
2023-01-03T06:07:08.752Z,928.16
2023-01-03T06:08:08.754Z,928.17
2023-01-03T06:09:08.775Z,928.21
2023-01-03T06:10:08.787Z,928.18
2023-01-03T06:11:08.808Z,928.18
2023-01-03T06:12:08.827Z,928.15
2023-01-03T06:13:08.827Z,928.19
2023-01-03T06:14:08.861Z,928.23
2023-01-03T06:15:08.877Z,928.19
2023-01-03T06:16:08.959Z,928.18
2023-01-03T06:17:08.912Z,928.15
2023-01-03T06:18:08.924Z,928.16
2023-01-03T06:19:08.936Z,928.16
2023-01-03T06:20:08.954Z,928.17
2023-01-03T06:21:08.976Z,928.19
2023-01-03T06:22:11.144Z,928.19
2023-01-03T06:23:08.993Z,928.19
2023-01-03T06:24:09.023Z,928.16
2023-01-03T06:25:09.041Z,928.16
2023-01-03T06:26:09.046Z,928.12
2023-01-03T06:27:09.056Z,928.11
2023-01-03T06:28:09.072Z,928.05
2023-01-03T06:29:09.086Z,928.01
2023-01-03T06:30:09.110Z,927.99
2023-01-03T06:31:09.289Z,928.01
2023-01-03T06:32:10.072Z,928.01
2023-01-03T06:33:09.146Z,928.01
2023-01-03T06:34:09.162Z,927.98
2023-01-03T06:35:09.182Z,927.97
2023-01-03T06:36:09.204Z,927.97
2023-01-03T06:37:09.214Z,927.96
2023-01-03T06:38:09.226Z,927.93
2023-01-03T06:39:09.250Z,927.99
2023-01-03T06:40:09.284Z,927.96
2023-01-03T06:41:09.286Z,927.99
2023-01-03T06:42:09.300Z,927.94
2023-01-03T06:43:09.311Z,927.97
2023-01-03T06:44:09.321Z,927.98
2023-01-03T06:45:09.343Z,927.97
2023-01-03T06:46:09.421Z,927.97
2023-01-03T06:47:09.367Z,928.00
2023-01-03T06:48:09.413Z,927.99
2023-01-03T06:49:09.408Z,927.98
2023-01-03T06:50:09.417Z,928.02
2023-01-03T06:51:09.437Z,928.04
2023-01-03T06:52:09.466Z,928.09
2023-01-03T06:53:09.467Z,928.15
2023-01-03T06:54:09.498Z,928.18
2023-01-03T06:55:09.519Z,928.20
2023-01-03T06:56:09.559Z,928.21
2023-01-03T06:57:09.525Z,928.23
2023-01-03T06:58:09.550Z,928.21
2023-01-03T06:59:09.574Z,928.20
2023-01-03T07:00:09.576Z,928.21
2023-01-03T07:01:09.827Z,928.21
2023-01-03T07:02:09.789Z,928.21
2023-01-03T07:03:11.702Z,928.23
2023-01-03T07:04:09.701Z,928.21
2023-01-03T07:05:09.655Z,928.24
2023-01-03T07:06:09.678Z,928.21
2023-01-03T07:07:09.693Z,928.23
2023-01-03T07:08:09.705Z,928.24
2023-01-03T07:09:09.734Z,928.26
2023-01-03T07:10:09.750Z,928.25
2023-01-03T07:11:09.761Z,928.25
2023-01-03T07:12:09.766Z,928.32
2023-01-03T07:13:09.788Z,928.31
2023-01-03T07:14:09.807Z,928.30
2023-01-03T07:15:09.824Z,928.27
2023-01-03T07:16:09.890Z,928.26
2023-01-03T07:17:09.850Z,928.24
2023-01-03T07:18:09.868Z,928.29
2023-01-03T07:19:09.883Z,928.29
2023-01-03T07:20:09.928Z,928.31
2023-01-03T07:21:09.909Z,928.32
2023-01-03T07:22:09.932Z,928.33
2023-01-03T07:23:09.952Z,928.34
2023-01-03T07:24:09.961Z,928.34
2023-01-03T07:25:09.981Z,928.35
2023-01-03T07:26:10.000Z,928.35
2023-01-03T07:27:10.010Z,928.35
2023-01-03T07:28:11.113Z,928.35
2023-01-03T07:29:10.059Z,928.35
2023-01-03T07:30:10.050Z,928.36
2023-01-03T07:31:10.174Z,928.33
2023-01-03T07:32:10.089Z,928.33
2023-01-03T07:33:10.099Z,928.34
2023-01-03T07:34:10.139Z,928.34
2023-01-03T07:35:10.128Z,928.34
2023-01-03T07:36:12.038Z,928.35
2023-01-03T07:37:10.159Z,928.36
2023-01-03T07:38:10.183Z,928.32
2023-01-03T07:39:10.192Z,928.31
2023-01-03T07:40:10.208Z,928.35
2023-01-03T07:41:10.228Z,928.32
2023-01-03T07:42:10.267Z,928.38
2023-01-03T07:43:10.263Z,928.32
2023-01-03T07:44:10.282Z,928.35
2023-01-03T07:45:10.292Z,928.35
2023-01-03T07:46:10.381Z,928.35
2023-01-03T07:47:10.340Z,928.36
2023-01-03T07:48:10.341Z,928.38
2023-01-03T07:49:12.190Z,928.37
2023-01-03T07:50:10.375Z,928.36
2023-01-03T07:51:10.381Z,928.40
2023-01-03T07:52:10.421Z,928.42
2023-01-03T07:53:10.419Z,928.38
2023-01-03T07:54:10.433Z,928.43
2023-01-03T07:55:10.461Z,928.44
2023-01-03T07:56:13.271Z,928.45
2023-01-03T07:57:10.484Z,928.45
2023-01-03T07:58:10.500Z,928.47
2023-01-03T07:59:10.518Z,928.50
2023-01-03T08:00:10.539Z,928.50
2023-01-03T08:01:10.693Z,928.50
2023-01-03T08:02:10.703Z,928.54
2023-01-03T08:03:11.683Z,928.52
2023-01-03T08:04:10.644Z,928.57
2023-01-03T08:05:10.613Z,928.55
2023-01-03T08:06:10.622Z,928.57
2023-01-03T08:07:10.645Z,928.56
2023-01-03T08:08:10.674Z,928.59
2023-01-03T08:09:10.673Z,928.63
2023-01-03T08:10:10.701Z,928.67
2023-01-03T08:11:10.704Z,928.68
2023-01-03T08:12:10.715Z,928.74
2023-01-03T08:13:10.732Z,928.80
2023-01-03T08:14:10.752Z,928.81
2023-01-03T08:15:10.769Z,928.84
2023-01-03T08:16:10.788Z,928.83
2023-01-03T08:17:10.793Z,928.86
2023-01-03T08:18:10.815Z,928.85
2023-01-03T08:19:10.836Z,928.88
2023-01-03T08:20:10.843Z,928.88
2023-01-03T08:21:10.855Z,928.88
2023-01-03T08:22:10.870Z,928.87
2023-01-03T08:23:10.887Z,928.91
2023-01-03T08:24:10.960Z,928.91
2023-01-03T08:25:10.939Z,928.91
2023-01-03T08:26:10.945Z,928.91
2023-01-03T08:27:10.973Z,928.91
2023-01-03T08:28:10.964Z,928.94
2023-01-03T08:29:11.002Z,928.92
2023-01-03T08:30:10.996Z,928.97
2023-01-03T08:31:11.076Z,928.96
2023-01-03T08:32:11.032Z,928.99
2023-01-03T08:33:11.045Z,929.03
2023-01-03T08:34:16.907Z,929.05
2023-01-03T08:35:11.081Z,929.03
2023-01-03T08:36:11.096Z,929.05
2023-01-03T08:37:11.140Z,929.10
2023-01-03T08:38:11.135Z,929.05
2023-01-03T08:39:11.137Z,929.10
2023-01-03T08:40:11.188Z,929.08
2023-01-03T08:41:11.177Z,929.12
2023-01-03T08:42:11.191Z,929.08
2023-01-03T08:43:11.227Z,929.05
2023-01-03T08:44:11.223Z,929.11
2023-01-03T08:45:11.282Z,929.12
2023-01-03T08:46:11.299Z,929.13
2023-01-03T08:47:11.340Z,929.11
2023-01-03T08:48:11.287Z,929.13
2023-01-03T08:49:11.301Z,929.15
2023-01-03T08:50:11.320Z,929.14
2023-01-03T08:51:11.334Z,929.17
2023-01-03T08:52:11.353Z,929.17
2023-01-03T08:53:11.372Z,929.16
2023-01-03T08:54:11.380Z,929.19
2023-01-03T08:55:11.457Z,929.18
2023-01-03T08:56:11.480Z,929.18
2023-01-03T08:57:11.460Z,929.21
2023-01-03T08:58:11.451Z,929.21
2023-01-03T08:59:11.475Z,929.25
2023-01-03T09:00:11.475Z,929.27
2023-01-03T09:01:11.703Z,929.32
2023-01-03T09:02:11.761Z,929.30
2023-01-03T09:03:11.702Z,929.30
2023-01-03T09:04:11.618Z,929.35
2023-01-03T09:05:11.571Z,929.35
2023-01-03T09:06:11.574Z,929.34
2023-01-03T09:07:11.588Z,929.35
2023-01-03T09:08:11.601Z,929.35
2023-01-03T09:09:11.621Z,929.36
2023-01-03T09:10:11.645Z,929.39
2023-01-03T09:11:11.654Z,929.42
2023-01-03T09:12:11.685Z,929.40
2023-01-03T09:13:11.670Z,929.43
2023-01-03T09:14:11.687Z,929.49
2023-01-03T09:15:11.703Z,929.46
2023-01-03T09:16:11.782Z,929.49
2023-01-03T09:17:11.742Z,929.52
2023-01-03T09:18:11.750Z,929.55
2023-01-03T09:19:11.774Z,929.53
2023-01-03T09:20:11.788Z,929.56
2023-01-03T09:21:11.805Z,929.57
2023-01-03T09:22:11.813Z,929.57
2023-01-03T09:23:11.835Z,929.61
2023-01-03T09:24:11.852Z,929.59
2023-01-03T09:25:11.866Z,929.65
2023-01-03T09:26:11.883Z,929.63
2023-01-03T09:27:11.902Z,929.64
2023-01-03T09:28:11.933Z,929.65
2023-01-03T09:29:11.930Z,929.69
2023-01-03T09:30:11.940Z,929.70
2023-01-03T09:31:12.023Z,929.73
2023-01-03T09:32:12.062Z,929.76
2023-01-03T09:33:11.998Z,929.76
2023-01-03T09:34:12.004Z,929.80
2023-01-03T09:35:12.017Z,929.80
2023-01-03T09:36:12.041Z,929.83
2023-01-03T09:37:12.077Z,929.86
2023-01-03T09:38:12.070Z,929.82
2023-01-03T09:39:12.077Z,929.83
2023-01-03T09:40:12.100Z,929.83
2023-01-03T09:41:12.116Z,929.83
2023-01-03T09:42:12.141Z,929.84
2023-01-03T09:43:12.150Z,929.85
2023-01-03T09:44:12.175Z,929.86
2023-01-03T09:45:12.179Z,929.88
2023-01-03T09:46:12.195Z,929.88
2023-01-03T09:47:12.241Z,929.93
2023-01-03T09:48:12.226Z,929.94
2023-01-03T09:49:12.235Z,929.95
2023-01-03T09:50:29.588Z,929.93
2023-01-03T09:51:20.998Z,929.91
2023-01-03T09:52:12.291Z,929.92
2023-01-03T09:53:12.297Z,929.96
2023-01-03T09:54:12.329Z,929.96
2023-01-03T09:55:12.343Z,929.94
2023-01-03T09:56:12.364Z,929.95
2023-01-03T09:57:12.369Z,929.95
2023-01-03T09:58:12.388Z,929.97
2023-01-03T09:59:12.391Z,929.96
2023-01-03T10:00:12.443Z,929.95
2023-01-03T10:01:12.594Z,929.99
2023-01-03T10:02:12.605Z,930.04
2023-01-03T10:03:12.498Z,930.00
2023-01-03T10:04:12.484Z,930.03
2023-01-03T10:05:12.493Z,930.05
2023-01-03T10:06:12.522Z,930.05
2023-01-03T10:07:12.522Z,930.07
2023-01-03T10:08:12.555Z,930.12
2023-01-03T10:09:12.564Z,930.11
2023-01-03T10:10:14.645Z,930.10
2023-01-03T10:11:12.585Z,930.15
2023-01-03T10:12:12.595Z,930.21
2023-01-03T10:13:19.513Z,930.19
2023-01-03T10:14:12.628Z,930.22
2023-01-03T10:15:12.639Z,930.23
2023-01-03T10:16:12.742Z,930.26
2023-01-03T10:17:12.673Z,930.25
2023-01-03T10:18:12.700Z,930.28
2023-01-03T10:19:12.727Z,930.28
2023-01-03T10:20:12.735Z,930.31
2023-01-03T10:21:12.736Z,930.29
2023-01-03T10:22:12.757Z,930.31
2023-01-03T10:23:12.772Z,930.38
2023-01-03T10:24:12.781Z,930.37
2023-01-03T10:25:12.814Z,930.37
2023-01-03T10:26:12.821Z,930.39
2023-01-03T10:27:12.836Z,930.35
2023-01-03T10:28:12.850Z,930.37
2023-01-03T10:29:12.860Z,930.36
2023-01-03T10:30:12.888Z,930.41
2023-01-03T10:31:12.902Z,930.41
2023-01-03T10:32:12.989Z,930.44
2023-01-03T10:33:12.923Z,930.44
2023-01-03T10:34:12.942Z,930.41
2023-01-03T10:35:12.963Z,930.48
2023-01-03T10:36:12.976Z,930.46
2023-01-03T10:37:12.996Z,930.45
2023-01-03T10:38:13.001Z,930.46
2023-01-03T10:39:13.016Z,930.45
2023-01-03T10:40:13.039Z,930.45
2023-01-03T10:41:13.046Z,930.46
2023-01-03T10:42:13.070Z,930.46
2023-01-03T10:43:13.100Z,930.46
2023-01-03T10:44:13.101Z,930.55
2023-01-03T10:45:13.111Z,930.52
2023-01-03T10:46:13.204Z,930.52
2023-01-03T10:47:13.147Z,930.61
2023-01-03T10:48:13.182Z,930.58
2023-01-03T10:49:30.070Z,930.57
2023-01-03T10:50:13.187Z,930.60
2023-01-03T10:51:13.204Z,930.58
2023-01-03T10:52:13.222Z,930.57
2023-01-03T10:53:13.234Z,930.58
2023-01-03T10:54:13.250Z,930.60
2023-01-03T10:55:13.280Z,930.60
2023-01-03T10:56:13.288Z,930.63
2023-01-03T10:57:13.296Z,930.63
2023-01-03T10:58:13.319Z,930.66
2023-01-03T10:59:13.334Z,930.66
2023-01-03T11:00:13.355Z,930.63
2023-01-03T11:01:13.464Z,930.69
2023-01-03T11:02:13.582Z,930.66
2023-01-03T11:03:13.619Z,930.64
2023-01-03T11:04:13.433Z,930.67
2023-01-03T11:05:13.429Z,930.65
2023-01-03T11:06:13.449Z,930.65
2023-01-03T11:07:13.550Z,930.68
2023-01-03T11:08:13.467Z,930.67
2023-01-03T11:09:13.488Z,930.70
2023-01-03T11:10:13.498Z,930.72
2023-01-03T11:11:13.517Z,930.71
2023-01-03T11:12:13.532Z,930.74
2023-01-03T11:13:13.560Z,930.72
2023-01-03T11:14:13.571Z,930.72
2023-01-03T11:15:13.586Z,930.73
2023-01-03T11:16:13.697Z,930.76
2023-01-03T11:17:13.749Z,930.77
2023-01-03T11:18:13.624Z,930.77
2023-01-03T11:19:13.647Z,930.79
2023-01-03T11:20:13.676Z,930.81
2023-01-03T11:21:13.708Z,930.75
2023-01-03T11:22:13.689Z,930.70
2023-01-03T11:23:13.702Z,930.75
2023-01-03T11:24:13.734Z,930.76
2023-01-03T11:25:13.733Z,930.73
2023-01-03T11:26:13.777Z,930.70
2023-01-03T11:27:13.773Z,930.74
2023-01-03T11:28:16.263Z,930.75
2023-01-03T11:29:13.796Z,930.72
2023-01-03T11:30:13.819Z,930.73
2023-01-03T11:31:13.828Z,930.72
2023-01-03T11:32:13.991Z,930.72
2023-01-03T11:33:13.868Z,930.73
2023-01-03T11:34:13.888Z,930.73
2023-01-03T11:35:23.504Z,930.75
2023-01-03T11:36:13.924Z,930.76
2023-01-03T11:37:13.931Z,930.70
2023-01-03T11:38:13.937Z,930.73
2023-01-03T11:39:16.377Z,930.73
2023-01-03T11:40:13.966Z,930.75
2023-01-03T11:41:13.984Z,930.74
2023-01-03T11:42:13.998Z,930.74
2023-01-03T11:43:14.017Z,930.76
2023-01-03T11:44:14.037Z,930.76
2023-01-03T11:45:14.045Z,930.74
2023-01-03T11:46:14.144Z,930.75
2023-01-03T11:47:14.082Z,930.75
2023-01-03T11:48:14.092Z,930.78
2023-01-03T11:49:14.138Z,930.80
2023-01-03T11:50:14.122Z,930.75
2023-01-03T11:51:14.148Z,930.75
2023-01-03T11:52:14.180Z,930.79
2023-01-03T11:53:14.184Z,930.72
2023-01-03T11:54:14.197Z,930.74
2023-01-03T11:55:14.215Z,930.72
2023-01-03T11:56:14.216Z,930.73
2023-01-03T11:57:14.233Z,930.73
2023-01-03T11:58:14.250Z,930.72
2023-01-03T11:59:14.273Z,930.72
2023-01-03T12:00:14.430Z,930.74
2023-01-03T12:01:14.358Z,930.73
2023-01-03T12:02:14.466Z,930.73
2023-01-03T12:03:14.493Z,930.71
2023-01-03T12:04:14.392Z,930.71
2023-01-03T12:05:14.372Z,930.71
2023-01-03T12:06:14.390Z,930.71
2023-01-03T12:07:46.263Z,930.66
2023-01-03T12:08:14.431Z,930.72
2023-01-03T12:09:14.424Z,930.70
2023-01-03T12:10:14.495Z,930.70
2023-01-03T12:11:14.464Z,930.74
2023-01-03T12:12:14.485Z,930.77
2023-01-03T12:13:14.484Z,930.75
2023-01-03T12:14:14.509Z,930.71
2023-01-03T12:15:14.522Z,930.72
2023-01-03T12:16:14.610Z,930.74
2023-01-03T12:17:14.548Z,930.69
2023-01-03T12:18:14.573Z,930.70
2023-01-03T12:19:14.587Z,930.72
2023-01-03T12:20:14.614Z,930.70
2023-01-03T12:21:14.614Z,930.67
2023-01-03T12:22:14.644Z,930.70
2023-01-03T12:23:14.652Z,930.70
2023-01-03T12:24:14.680Z,930.67
2023-01-03T12:25:14.682Z,930.65
2023-01-03T12:26:14.691Z,930.65
2023-01-03T12:27:14.708Z,930.70
2023-01-03T12:28:14.721Z,930.67